Time;durP1;ratioP1;P1;durP2;ratioP2;P2;SDS_P1;SDS_P2;PMS_P1;PMS_P2;Temp;Humidity;BMP_temperature;BMP_pressure;BME280_temperature;BME280_humidity;BME280_pressure;Samples;Min_cycle;Max_cycle;Signal;HPM_P1;HPM_P2
2021/01/20 00:00:43;;;;;;;2.42;1.98;;;3.90;99.90;;;;;;5044329;28;20231;-82
2021/01/20 00:03:09;;;;;;;3.22;2.20;;;3.90;99.90;;;;;;5044377;28;20203;-83
2021/01/20 00:05:36;;;;;;;1.88;1.63;;;3.80;99.90;;;;;;5043985;28;20234;-83
2021/01/20 00:08:02;;;;;;;3.40;2.85;;;3.80;99.90;;;;;;5043797;28;20223;-83
2021/01/20 00:10:30;;;;;;;2.25;1.95;;;3.80;99.90;;;;;;5043492;28;20279;-83
2021/01/20 00:12:57;;;;;;;1.65;1.55;;;3.80;99.90;;;;;;5043721;28;20249;-83
2021/01/20 00:15:26;;;;;;;1.50;1.40;;;3.70;99.90;;;;;;5043356;28;20211;-84
2021/01/20 00:17:56;;;;;;;2.08;1.45;;;3.70;99.90;;;;;;5043608;28;20254;-83
2021/01/20 00:20:23;;;;;;;1.40;1.30;;;3.70;99.90;;;;;;5042982;28;20233;-82
2021/01/20 00:22:49;;;;;;;1.17;1.17;;;3.70;99.90;;;;;;5043648;28;20213;-83
2021/01/20 00:25:17;;;;;;;1.58;1.48;;;3.70;99.90;;;;;;5044353;28;20274;-83
2021/01/20 00:27:43;;;;;;;2.50;2.00;;;3.70;99.90;;;;;;5043296;28;20226;-83
2021/01/20 00:30:14;;;;;;;1.27;1.23;;;3.70;99.90;;;;;;5043367;28;20267;-83
2021/01/20 00:32:40;;;;;;;1.77;1.63;;;3.70;99.90;;;;;;5042454;28;20197;-83
2021/01/20 00:35:12;;;;;;;2.15;1.60;;;3.70;99.90;;;;;;5043107;28;20209;-83
2021/01/20 00:37:40;;;;;;;2.60;1.63;;;3.70;99.90;;;;;;5042748;28;20728;-81
2021/01/20 00:40:08;;;;;;;1.50;1.40;;;3.60;99.90;;;;;;5042867;28;20707;-83
2021/01/20 00:42:35;;;;;;;1.80;1.52;;;3.60;99.90;;;;;;5043357;28;20225;-83
2021/01/20 00:45:01;;;;;;;2.78;1.70;;;3.60;99.90;;;;;;5042358;28;20211;-82
2021/01/20 00:47:30;;;;;;;1.42;1.33;;;3.60;99.90;;;;;;5043421;28;20234;-84
2021/01/20 00:49:59;;;;;;;2.00;1.60;;;3.50;99.90;;;;;;5043281;28;20198;-83
2021/01/20 00:52:25;;;;;;;2.47;1.75;;;3.50;99.90;;;;;;5043357;28;20629;-83
2021/01/20 00:54:51;;;;;;;2.83;1.67;;;3.50;99.90;;;;;;5042441;28;20264;-84
2021/01/20 00:57:20;;;;;;;1.60;1.50;;;3.60;99.90;;;;;;5042523;28;20288;-84
2021/01/20 00:59:46;;;;;;;1.48;1.27;;;3.60;99.90;;;;;;5042980;28;20263;-83
2021/01/20 01:02:12;;;;;;;2.90;1.55;;;3.70;99.90;;;;;;5042710;28;20232;-84
2021/01/20 01:04:42;;;;;;;1.55;1.45;;;3.60;99.90;;;;;;5042625;28;20206;-83
2021/01/20 01:07:09;;;;;;;1.45;1.35;;;3.60;99.90;;;;;;5042381;28;20256;-84
2021/01/20 01:09:37;;;;;;;2.00;1.80;;;3.60;99.90;;;;;;5042436;28;20242;-84
2021/01/20 01:12:05;;;;;;;1.20;1.00;;;3.70;99.90;;;;;;5042699;28;20314;-83
2021/01/20 01:14:35;;;;;;;2.70;2.50;;;3.70;99.90;;;;;;5042424;28;20196;-83
2021/01/20 01:17:06;;;;;;;1.45;1.10;;;3.70;99.90;;;;;;5042115;28;20256;-83
2021/01/20 01:19:36;;;;;;;1.70;1.60;;;3.80;99.90;;;;;;5041855;28;20242;-83
2021/01/20 01:22:03;;;;;;;1.50;1.40;;;3.80;99.90;;;;;;5041747;28;20754;-84
2021/01/20 01:24:31;;;;;;;1.58;1.48;;;3.80;99.90;;;;;;5041901;28;20211;-83
2021/01/20 01:26:58;;;;;;;1.80;1.70;;;3.80;99.90;;;;;;5041293;28;20231;-82
2021/01/20 01:29:24;;;;;;;1.92;1.83;;;3.80;99.90;;;;;;5041816;28;20204;-83
2021/01/20 01:31:52;;;;;;;1.75;1.65;;;3.80;99.90;;;;;;5041818;28;20203;-84
2021/01/20 01:34:18;;;;;;;3.38;1.67;;;3.80;99.90;;;;;;5041347;28;20214;-83
2021/01/20 01:36:45;;;;;;;1.85;1.70;;;3.80;99.90;;;;;;5041676;28;20242;-83
2021/01/20 01:39:15;;;;;;;1.55;1.40;;;3.90;99.90;;;;;;5041086;28;20207;-83
2021/01/20 01:41:42;;;;;;;2.00;1.85;;;3.80;99.90;;;;;;5041273;28;20310;-83
2021/01/20 01:44:08;;;;;;;1.50;1.40;;;3.80;99.90;;;;;;5041622;28;20226;-84
2021/01/20 01:46:39;;;;;;;1.70;1.60;;;3.80;99.90;;;;;;5041131;28;20630;-84
2021/01/20 01:49:05;;;;;;;1.67;1.58;;;3.80;99.90;;;;;;5042463;28;20231;-83
2021/01/20 01:51:33;;;;;;;2.38;2.20;;;3.70;99.90;;;;;;5040528;28;20203;-84
2021/01/20 01:54:00;;;;;;;2.33;1.80;;;3.70;99.90;;;;;;5041148;28;20203;-84
2021/01/20 01:56:36;;;;;;;2.95;2.15;;;3.70;99.90;;;;;;5041052;28;20211;-83
2021/01/20 01:59:08;;;;;;;2.42;2.30;;;3.70;99.90;;;;;;5041107;28;20236;-83
2021/01/20 02:01:34;;;;;;;5.15;1.98;;;3.70;99.90;;;;;;5041111;28;20211;-84
2021/01/20 02:04:04;;;;;;;1.88;1.77;;;3.70;99.90;;;;;;5040743;28;20289;-84
2021/01/20 02:06:32;;;;;;;2.85;2.60;;;3.70;99.90;;;;;;5040466;28;20183;-84
2021/01/20 02:09:01;;;;;;;2.15;1.85;;;3.70;99.90;;;;;;5041308;28;20230;-84
2021/01/20 02:11:39;;;;;;;2.05;1.95;;;3.70;99.90;;;;;;5039909;28;20207;-84
2021/01/20 02:14:16;;;;;;;2.22;2.03;;;3.70;99.90;;;;;;5039780;28;20205;-83
2021/01/20 02:16:56;;;;;;;1.50;1.40;;;3.70;99.90;;;;;;5040574;28;20206;-84
2021/01/20 02:19:44;;;;;;;1.40;1.30;;;3.70;99.90;;;;;;5039585;28;20218;-83
2021/01/20 02:22:20;;;;;;;2.75;1.80;;;3.70;99.90;;;;;;5039410;28;20215;-84
2021/01/20 02:25:01;;;;;;;0.93;0.93;;;3.70;99.90;;;;;;5039996;28;20210;-83
2021/01/20 02:27:40;;;;;;;1.80;1.45;;;3.70;99.90;;;;;;5039858;28;20313;-83
2021/01/20 02:30:11;;;;;;;1.35;1.25;;;3.70;99.90;;;;;;5040343;28;20202;-83
2021/01/20 02:32:46;;;;;;;0.80;0.80;;;3.70;99.90;;;;;;5040139;28;20251;-83
2021/01/20 02:35:13;;;;;;;1.00;1.00;;;3.70;99.90;;;;;;5038927;28;20198;-83
2021/01/20 02:37:40;;;;;;;1.42;1.30;;;3.80;99.90;;;;;;5039280;28;20230;-83
2021/01/20 02:40:14;;;;;;;1.48;1.33;;;3.90;99.90;;;;;;5038945;28;20753;-83
2021/01/20 02:42:42;;;;;;;2.30;2.00;;;4.00;99.90;;;;;;5032206;28;20191;-84
2021/01/20 02:45:14;;;;;;;1.48;1.08;;;4.10;99.90;;;;;;5039698;28;20211;-83
2021/01/20 02:47:43;;;;;;;1.73;1.60;;;4.10;99.90;;;;;;5039044;28;20290;-83
2021/01/20 02:50:10;;;;;;;1.58;1.48;;;4.10;99.90;;;;;;5039467;28;20257;-83
2021/01/20 02:52:49;;;;;;;2.60;1.48;;;4.10;99.90;;;;;;5039601;28;20202;-83
2021/01/20 02:55:17;;;;;;;2.42;2.22;;;4.20;99.90;;;;;;5039745;28;20210;-83
2021/01/20 02:57:55;;;;;;;1.48;1.38;;;4.20;99.90;;;;;;5039618;28;20724;-82
2021/01/20 03:00:26;;;;;;;1.67;1.20;;;4.20;99.90;;;;;;5040196;28;20679;-84
2021/01/20 03:02:54;;;;;;;1.50;1.40;;;4.20;99.90;;;;;;5039900;28;20193;-83
2021/01/20 03:05:22;;;;;;;1.38;1.27;;;4.20;99.90;;;;;;5040011;28;20227;-84
2021/01/20 03:07:52;;;;;;;1.63;1.52;;;4.30;99.90;;;;;;5039423;28;20669;-84
2021/01/20 03:10:20;;;;;;;1.50;1.40;;;4.20;99.90;;;;;;5040156;28;20200;-84
2021/01/20 03:12:46;;;;;;;1.80;1.70;;;4.20;99.90;;;;;;5039687;28;20229;-84
2021/01/20 03:15:20;;;;;;;0.90;0.90;;;4.20;99.90;;;;;;5040194;28;20210;-84
2021/01/20 03:17:47;;;;;;;1.85;1.75;;;4.10;99.90;;;;;;5040312;28;20234;-83
2021/01/20 03:20:14;;;;;;;1.60;1.42;;;4.10;99.90;;;;;;5039791;28;20238;-84
2021/01/20 03:22:40;;;;;;;1.77;1.55;;;4.00;99.90;;;;;;5038778;28;20572;-84
2021/01/20 03:25:08;;;;;;;2.08;1.50;;;4.00;99.90;;;;;;5039411;28;20215;-84
2021/01/20 03:27:39;;;;;;;2.03;1.40;;;4.00;99.90;;;;;;5039775;28;20231;-84
2021/01/20 03:30:06;;;;;;;2.47;1.48;;;4.00;99.90;;;;;;5039754;28;20688;-84
2021/01/20 03:32:33;;;;;;;1.80;1.70;;;4.00;99.90;;;;;;5043612;28;20208;-84
2021/01/20 03:35:06;;;;;;;1.70;1.60;;;4.00;99.90;;;;;;5043773;28;20215;-84
2021/01/20 03:37:34;;;;;;;1.40;1.30;;;3.90;99.90;;;;;;5044177;28;20289;-84
2021/01/20 03:40:03;;;;;;;1.80;1.70;;;3.90;99.90;;;;;;5044389;28;20210;-84
2021/01/20 03:42:29;;;;;;;1.75;1.50;;;3.80;99.90;;;;;;5044203;28;20217;-84
2021/01/20 03:45:00;;;;;;;2.20;1.70;;;3.80;99.90;;;;;;5043865;28;20637;-84
2021/01/20 03:47:26;;;;;;;1.70;1.60;;;3.80;99.90;;;;;;5047771;28;20305;-82
2021/01/20 03:49:53;;;;;;;2.00;1.90;;;3.80;99.90;;;;;;5049632;28;20211;-83
2021/01/20 03:52:20;;;;;;;1.80;1.70;;;3.70;99.90;;;;;;5048729;28;20284;-83
2021/01/20 03:54:46;;;;;;;1.38;1.02;;;3.70;99.90;;;;;;5049425;28;20207;-83
2021/01/20 03:57:12;;;;;;;1.65;1.45;;;3.60;99.90;;;;;;5049170;28;20231;-83
2021/01/20 03:59:38;;;;;;;1.80;1.13;;;3.70;99.90;;;;;;5049428;28;20281;-83
2021/01/20 04:02:06;;;;;;;1.33;1.23;;;3.70;99.90;;;;;;5048607;28;20616;-82
2021/01/20 04:04:32;;;;;;;1.20;1.10;;;3.70;99.90;;;;;;5048767;28;20274;-83
2021/01/20 04:07:00;;;;;;;1.20;1.20;;;3.70;99.90;;;;;;5049365;28;20214;-82
2021/01/20 04:09:27;;;;;;;2.70;1.80;;;3.70;99.90;;;;;;5049277;28;20217;-83
2021/01/20 04:11:54;;;;;;;1.40;1.30;;;3.70;99.90;;;;;;5048421;28;20231;-83
2021/01/20 04:14:20;;;;;;;1.98;1.30;;;3.70;99.90;;;;;;5048964;28;20215;-83
2021/01/20 04:16:46;;;;;;;1.45;1.38;;;3.70;99.90;;;;;;5049111;28;20210;-83
2021/01/20 04:19:12;;;;;;;1.58;1.48;;;3.70;99.90;;;;;;5049307;28;20212;-83
2021/01/20 04:21:38;;;;;;;1.20;1.10;;;3.70;99.90;;;;;;5048374;28;20237;-83
2021/01/20 04:24:06;;;;;;;2.08;1.95;;;3.70;99.90;;;;;;5048917;28;20206;-83
2021/01/20 04:26:33;;;;;;;1.70;1.60;;;3.70;99.90;;;;;;5048640;28;20555;-83
2021/01/20 04:28:59;;;;;;;1.48;1.20;;;3.80;99.90;;;;;;5048368;28;20230;-83
2021/01/20 04:31:25;;;;;;;2.03;1.92;;;3.70;99.90;;;;;;5049312;28;20207;-83
2021/01/20 04:33:52;;;;;;;2.65;2.45;;;3.70;99.90;;;;;;5048300;28;20213;-83
2021/01/20 04:36:18;;;;;;;2.22;1.67;;;3.70;99.90;;;;;;5048742;28;20211;-83
2021/01/20 04:38:44;;;;;;;2.85;1.88;;;3.70;99.90;;;;;;5048212;28;20229;-83
2021/01/20 04:41:10;;;;;;;3.10;2.35;;;3.70;99.90;;;;;;5048752;28;20242;-82
2021/01/20 04:43:37;;;;;;;1.40;1.40;;;3.70;99.90;;;;;;5048000;28;20213;-83
2021/01/20 04:46:04;;;;;;;2.05;1.80;;;3.80;99.90;;;;;;5048142;28;20238;-82
2021/01/20 04:48:33;;;;;;;2.88;2.60;;;3.70;99.90;;;;;;5048746;28;20233;-83
2021/01/20 04:51:02;;;;;;;2.35;2.15;;;3.70;99.90;;;;;;5048549;28;20217;-83
2021/01/20 04:53:30;;;;;;;2.70;2.00;;;3.70;99.90;;;;;;5048048;28;20617;-83
2021/01/20 04:56:01;;;;;;;3.25;3.05;;;3.70;99.90;;;;;;5048570;28;20203;-83
2021/01/20 04:58:27;;;;;;;2.72;2.45;;;3.70;99.90;;;;;;5049089;28;20227;-82
2021/01/20 05:00:54;;;;;;;2.83;1.90;;;3.70;99.90;;;;;;5048023;28;20233;-83
2021/01/20 05:03:21;;;;;;;2.22;2.03;;;3.70;99.90;;;;;;5048472;28;20217;-83
2021/01/20 05:05:48;;;;;;;1.90;1.80;;;3.70;99.90;;;;;;5048246;28;20206;-83
2021/01/20 05:08:14;;;;;;;2.45;2.25;;;3.80;99.90;;;;;;5047638;28;20747;-82
2021/01/20 05:10:42;;;;;;;2.63;1.70;;;3.80;99.90;;;;;;5048525;28;20206;-82
2021/01/20 05:13:24;;;;;;;1.50;1.40;;;3.80;99.90;;;;;;5048329;28;20207;-83
2021/01/20 05:15:50;;;;;;;1.95;1.70;;;3.80;99.90;;;;;;5049461;28;20194;-82
2021/01/20 05:18:17;;;;;;;1.52;1.42;;;3.90;99.90;;;;;;5047691;28;20255;-82
2021/01/20 05:20:43;;;;;;;2.25;1.35;;;3.90;99.90;;;;;;5047531;28;20257;-83
2021/01/20 05:23:10;;;;;;;1.98;1.60;;;4.00;99.90;;;;;;5047269;28;20211;-83
2021/01/20 05:25:38;;;;;;;1.65;1.55;;;4.00;99.90;;;;;;5047877;28;20223;-83
2021/01/20 05:28:18;;;;;;;1.70;1.60;;;4.10;99.90;;;;;;5047268;28;20227;-82
2021/01/20 05:30:45;;;;;;;1.95;1.75;;;4.10;99.90;;;;;;5047438;28;20207;-83
2021/01/20 05:33:14;;;;;;;2.05;1.85;;;4.10;99.90;;;;;;5047565;28;20214;-83
2021/01/20 05:35:41;;;;;;;2.40;1.90;;;4.10;99.90;;;;;;5047496;28;20220;-83
2021/01/20 05:38:07;;;;;;;2.30;2.03;;;4.20;99.90;;;;;;5047313;28;20224;-83
2021/01/20 05:40:34;;;;;;;2.22;1.77;;;4.10;99.90;;;;;;5047138;28;20232;-83
2021/01/20 05:43:01;;;;;;;3.42;2.20;;;4.20;99.90;;;;;;5047214;28;20211;-82
2021/01/20 05:45:28;;;;;;;2.10;1.75;;;4.20;99.90;;;;;;5047182;28;20229;-83
2021/01/20 05:48:08;;;;;;;2.95;1.80;;;4.20;99.90;;;;;;5047512;28;20244;-82
2021/01/20 05:50:36;;;;;;;2.80;1.95;;;4.30;99.90;;;;;;5046744;28;20358;-83
2021/01/20 05:53:05;;;;;;;1.80;1.70;;;4.30;99.90;;;;;;5047093;28;20215;-83
2021/01/20 05:55:31;;;;;;;2.25;1.90;;;4.30;99.90;;;;;;5047220;28;20221;-82
2021/01/20 05:57:57;;;;;;;1.55;1.50;;;4.30;99.90;;;;;;5047066;28;20260;-83
2021/01/20 06:00:24;;;;;;;2.42;2.22;;;4.30;99.90;;;;;;5046546;28;20616;-83
2021/01/20 06:02:55;;;;;;;1.80;1.70;;;4.40;99.90;;;;;;5046827;28;20207;-83
2021/01/20 06:05:21;;;;;;;2.05;1.52;;;4.30;99.90;;;;;;5046397;28;20227;-82
2021/01/20 06:07:50;;;;;;;1.30;1.30;;;4.40;99.90;;;;;;5046923;28;20223;-83
2021/01/20 06:10:18;;;;;;;6.57;2.88;;;4.40;99.90;;;;;;5046635;28;20211;-84
2021/01/20 06:12:44;;;;;;;2.28;1.77;;;4.40;99.90;;;;;;5046539;28;20208;-84
2021/01/20 06:15:12;;;;;;;1.75;1.65;;;4.40;99.90;;;;;;5047257;28;20204;-84
2021/01/20 06:17:41;;;;;;;1.92;1.80;;;4.40;99.90;;;;;;5046778;28;20239;-83
2021/01/20 06:20:09;;;;;;;2.13;1.90;;;4.40;99.90;;;;;;5046683;28;20219;-83
2021/01/20 06:22:41;;;;;;;2.75;1.95;;;4.40;99.90;;;;;;5046550;28;20243;-83
2021/01/20 06:25:11;;;;;;;2.55;2.38;;;4.40;99.90;;;;;;5046987;28;20502;-83
2021/01/20 06:27:43;;;;;;;1.90;1.80;;;4.40;99.90;;;;;;5046939;28;20230;-82
2021/01/20 06:30:14;;;;;;;2.90;2.47;;;4.40;99.90;;;;;;5046272;28;20605;-82
2021/01/20 06:32:44;;;;;;;3.05;2.10;;;4.40;99.90;;;;;;5046082;28;20193;-83
2021/01/20 06:35:11;;;;;;;4.57;1.98;;;4.40;99.90;;;;;;5046464;28;20267;-83
2021/01/20 06:37:42;;;;;;;4.10;2.80;;;4.40;99.90;;;;;;5046351;28;20235;-84
2021/01/20 06:40:47;;;;;;;4.18;2.05;;;4.50;99.90;;;;;;5046667;28;20210;-83
2021/01/20 06:43:43;;;;;;;2.85;2.00;;;4.50;99.90;;;;;;5042553;28;20205;-83
2021/01/20 06:46:11;;;;;;;1.88;1.77;;;4.50;99.90;;;;;;5045993;28;20211;-83
2021/01/20 06:49:05;;;;;;;3.20;3.00;;;4.50;99.90;;;;;;5045719;28;20243;-83
2021/01/20 06:51:33;;;;;;;2.85;2.30;;;4.50;99.90;;;;;;5044279;28;20204;-84
2021/01/20 06:54:15;;;;;;;3.65;3.03;;;4.60;99.90;;;;;;5044799;28;20262;-83
2021/01/20 06:56:43;;;;;;;3.00;1.80;;;4.50;99.90;;;;;;5044206;28;20222;-83
2021/01/20 06:59:25;;;;;;;3.28;2.83;;;4.60;99.90;;;;;;5044313;28;20213;-83
2021/01/20 07:02:11;;;;;;;2.47;2.28;;;4.60;99.90;;;;;;5044277;28;20236;-83
2021/01/20 07:05:08;;;;;;;2.90;1.77;;;4.60;99.90;;;;;;5043761;28;20217;-83
2021/01/20 07:08:01;;;;;;;2.30;2.10;;;4.60;99.90;;;;;;5043436;28;20228;-83
2021/01/20 07:10:30;;;;;;;3.05;1.80;;;4.60;99.90;;;;;;5043614;28;20203;-84
2021/01/20 07:13:20;;;;;;;4.38;1.65;;;4.60;99.90;;;;;;5043829;28;20219;-82
2021/01/20 07:15:52;;;;;;;1.92;1.80;;;4.60;99.90;;;;;;5044065;28;20241;-83
2021/01/20 07:18:22;;;;;;;2.10;1.98;;;4.60;99.90;;;;;;5043752;28;20260;-83
2021/01/20 07:20:48;;;;;;;2.70;1.50;;;4.60;99.90;;;;;;5044324;28;20224;-83
2021/01/20 07:23:14;;;;;;;1.85;1.75;;;4.60;99.90;;;;;;5043326;28;20210;-83
2021/01/20 07:25:58;;;;;;;3.17;2.67;;;4.60;99.90;;;;;;5045102;28;20214;-82
2021/01/20 07:28:24;;;;;;;3.25;1.88;;;4.60;99.90;;;;;;5040311;28;20232;-81
2021/01/20 07:31:04;;;;;;;3.30;2.13;;;4.60;99.90;;;;;;5040550;28;20211;-81
2021/01/20 07:33:31;;;;;;;3.05;2.25;;;4.60;99.90;;;;;;5037771;28;20848;-82
2021/01/20 07:35:57;;;;;;;2.30;2.20;;;4.50;99.90;;;;;;5036604;28;20233;-81
2021/01/20 07:38:32;;;;;;;2.20;2.00;;;4.50;99.90;;;;;;5036092;28;20216;-81
2021/01/20 07:40:58;;;;;;;2.55;2.45;;;4.40;99.90;;;;;;5034382;28;20212;-82
2021/01/20 07:43:25;;;;;;;2.95;2.35;;;4.50;99.90;;;;;;5035804;28;20222;-81
2021/01/20 07:45:52;;;;;;;2.35;2.15;;;4.50;99.90;;;;;;5036439;28;20208;-82
2021/01/20 07:48:29;;;;;;;2.40;2.20;;;4.50;99.90;;;;;;5035714;28;20698;-82
2021/01/20 07:50:56;;;;;;;4.70;2.80;;;4.50;99.90;;;;;;5033935;28;20196;-82
2021/01/20 07:53:22;;;;;;;4.57;2.63;;;4.60;99.90;;;;;;5034036;28;20203;-81
2021/01/20 07:55:55;;;;;;;2.55;2.40;;;4.60;99.90;;;;;;5034352;28;20206;-82
2021/01/20 07:58:26;;;;;;;3.22;2.92;;;4.60;99.90;;;;;;5034461;28;20227;-81
2021/01/20 08:00:53;;;;;;;2.95;2.75;;;4.60;99.90;;;;;;5032751;28;20685;-81
2021/01/20 08:03:32;;;;;;;4.82;3.00;;;4.60;99.90;;;;;;5034805;28;20205;-81
2021/01/20 08:06:00;;;;;;;2.88;2.63;;;4.60;99.90;;;;;;5034710;28;20208;-81
2021/01/20 08:08:26;;;;;;;3.03;2.67;;;4.70;99.90;;;;;;5036563;28;20230;-81
2021/01/20 08:10:57;;;;;;;2.80;2.50;;;4.70;99.90;;;;;;5029591;28;20257;-81
2021/01/20 08:13:26;;;;;;;5.28;3.00;;;4.80;99.90;;;;;;5018639;28;20215;-81
2021/01/20 08:15:53;;;;;;;3.53;3.22;;;4.80;99.90;;;;;;5017743;28;20210;-81
2021/01/20 08:18:20;;;;;;;4.03;2.97;;;4.90;99.90;;;;;;5036030;28;20236;-81
2021/01/20 08:20:49;;;;;;;3.15;2.75;;;5.00;99.90;;;;;;5040796;28;20261;-81
2021/01/20 08:23:32;;;;;;;4.35;2.75;;;5.20;99.90;;;;;;5036298;28;20214;-81
2021/01/20 10:08:20;;;;;;;3.15;2.15;;;6.50;98.20;;;;;;5031790;28;20223;-85
2021/01/20 10:11:49;;;;;;;;;;;;;;;;;;;;;
2021/01/20 11:15:36;;;;;;;2.80;2.55;;;8.30;95.80;;;;;;5048399;28;20222;-85
2021/01/20 11:18:03;;;;;;;3.20;2.90;;;8.20;95.90;;;;;;5049358;28;20231;-86
2021/01/20 11:20:32;;;;;;;6.05;3.83;;;8.20;95.80;;;;;;5048615;28;20202;-85
2021/01/20 11:23:03;;;;;;;3.78;3.20;;;8.20;95.60;;;;;;5046207;28;20249;-86
2021/01/20 12:38:34;;;;;;;4.00;2.80;;;8.60;95.00;;;;;;4802775;29;20969;-86
2021/01/20 12:41:31;;;;;;;3.15;2.55;;;8.60;94.40;;;;;;4902578;29;20245;-85
2021/01/20 12:43:57;;;;;;;5.93;3.50;;;8.70;94.50;;;;;;4942977;29;20390;-82
2021/01/20 12:46:23;;;;;;;4.10;3.80;;;8.60;94.40;;;;;;4945077;29;20296;-83
2021/01/20 12:48:50;;;;;;;4.53;3.42;;;8.60;94.40;;;;;;4963412;28;20242;-83
2021/01/20 12:51:16;;;;;;;4.22;3.40;;;8.60;94.50;;;;;;5024852;28;20570;-83
2021/01/20 13:52:53;;;;;;;4.30;3.70;;;9.10;94.10;;;;;;6138226;23;779485;-83
2021/01/20 13:55:24;;;;;;;4.80;4.45;;;9.20;94.20;;;;;;6173496;23;20178;-83
2021/01/20 13:57:51;;;;;;;3.65;3.42;;;9.40;94.20;;;;;;6160236;23;20207;-82
2021/01/20 14:00:17;;;;;;;3.42;3.13;;;9.50;94.00;;;;;;6143369;23;20210;-81
2021/01/20 14:17:34;;;;;;;4.10;3.47;;;9.70;93.20;;;;;;5898601;24;20242;-88
2021/01/20 14:20:10;;;;;;;6.90;3.90;;;9.60;93.00;;;;;;5993886;23;20194;-87
2021/01/20 14:22:58;;;;;;;;;;;;;;;;;;;;;
2021/01/20 14:31:10;;;;;;;6.65;3.55;;;9.40;93.30;;;;;;6187036;23;20190;-82
2021/01/20 15:10:39;;;;;;;3.33;3.03;;;8.60;95.00;;;;;;6167071;23;20202;-86
2021/01/20 15:13:18;;;;;;;3.20;2.40;;;8.60;95.30;;;;;;6166691;23;20250;-86
2021/01/20 15:15:56;;;;;;;3.40;3.17;;;8.60;95.10;;;;;;6162133;23;20254;-85
2021/01/20 15:18:57;;;;;;;3.05;2.40;;;8.50;95.10;;;;;;6186697;23;20222;-86
2021/01/20 15:21:28;;;;;;;3.17;2.83;;;8.50;95.10;;;;;;6200999;23;20163;-83
2021/01/20 15:26:38;;;;;;;3.17;2.80;;;8.40;95.10;;;;;;6191535;23;20234;-84
2021/01/20 15:29:08;;;;;;;3.25;2.97;;;8.40;95.20;;;;;;6204907;23;20214;-84
2021/01/20 15:41:57;;;;;;;3.55;3.08;;;7.80;95.50;;;;;;5865933;24;20184;-86
2021/01/20 15:44:30;;;;;;;5.75;3.20;;;7.70;95.80;;;;;;6056472;23;20182;-85
2021/01/20 15:50:24;;;;;;;3.97;2.97;;;7.60;96.00;;;;;;6200691;23;20182;-86
2021/01/20 15:52:52;;;;;;;5.40;3.20;;;7.50;96.00;;;;;;6139760;23;20190;-84
2021/01/20 15:55:38;;;;;;;2.60;2.40;;;7.40;96.30;;;;;;6207193;23;20179;-86
2021/01/20 16:14:58;;;;;;;2.30;1.98;;;7.00;96.80;;;;;;6142762;23;20183;-85
2021/01/20 16:17:38;;;;;;;2.25;2.10;;;6.90;96.80;;;;;;6204762;23;20540;-87
2021/01/20 16:20:50;;;;;;;2.45;2.22;;;6.80;97.00;;;;;;6202591;23;20177;-87
2021/01/20 16:27:13;;;;;;;2.80;2.60;;;6.90;97.30;;;;;;5864283;24;20320;-88
2021/01/20 16:33:43;;;;;;;2.83;2.28;;;6.80;97.30;;;;;;5966516;24;20200;-88
2021/01/20 16:36:15;;;;;;;2.35;2.15;;;6.70;97.20;;;;;;5972664;23;20177;-85
2021/01/20 16:39:02;;;;;;;2.65;2.45;;;6.70;97.40;;;;;;6180943;23;20221;-86
2021/01/20 16:41:47;;;;;;;3.85;3.20;;;6.70;97.50;;;;;;6210212;23;20213;-88
2021/01/20 16:44:14;;;;;;;3.75;3.45;;;6.70;97.30;;;;;;6205792;23;20182;-85
2021/01/20 16:46:43;;;;;;;4.13;3.75;;;6.70;97.50;;;;;;6206376;23;20182;-87
2021/01/20 16:52:18;;;;;;;3.72;2.70;;;6.70;97.40;;;;;;6187270;23;20204;-87
2021/01/20 16:54:47;;;;;;;2.67;2.45;;;6.60;97.30;;;;;;6164954;23;20178;-85
2021/01/20 16:57:25;;;;;;;2.55;2.35;;;6.60;97.40;;;;;;6207483;23;20696;-86
2021/01/20 17:00:18;;;;;;;2.25;2.05;;;6.60;97.50;;;;;;6208710;23;20170;-86
2021/01/20 17:03:16;;;;;;;2.75;2.40;;;6.60;97.50;;;;;;6057571;23;20241;-86
2021/01/20 17:19:11;;;;;;;;;;;;;;;;;;;;;
2021/01/20 17:22:13;;;;;;;;;;;;;;;;;;;;;
2021/01/20 17:24:45;;;;;;;3.05;2.75;;;6.70;98.00;;;;;;6193702;23;20173;-84
2021/01/20 18:00:06;;;;;;;4.75;3.10;;;6.20;98.50;;;;;;6168596;23;20214;-86
2021/01/20 18:28:15;;;;;;;2.72;2.50;;;6.10;98.80;;;;;;6133990;23;20199;-81
2021/01/20 18:30:42;;;;;;;5.00;3.50;;;6.10;98.80;;;;;;6131994;23;20186;-82
2021/01/20 18:33:08;;;;;;;6.60;3.90;;;6.20;98.80;;;;;;6132987;23;20235;-82
2021/01/20 18:35:34;;;;;;;6.20;3.25;;;6.20;98.50;;;;;;6132931;23;20184;-80
2021/01/20 18:38:02;;;;;;;5.40;2.95;;;6.20;98.30;;;;;;6133905;23;20207;-82
2021/01/20 18:40:28;;;;;;;2.90;2.70;;;6.30;98.30;;;;;;6134364;23;20671;-82
2021/01/20 18:42:56;;;;;;;4.18;3.65;;;6.30;98.10;;;;;;6133337;23;20219;-82
2021/01/20 18:45:23;;;;;;;3.15;2.88;;;6.40;98.00;;;;;;6133338;23;20186;-81
2021/01/20 18:47:49;;;;;;;6.35;3.13;;;6.40;97.90;;;;;;6134695;23;20754;-81
2021/01/20 18:50:17;;;;;;;5.60;4.65;;;6.40;97.60;;;;;;6134176;23;20231;-81
2021/01/20 18:52:43;;;;;;;7.10;3.95;;;6.40;97.90;;;;;;6133614;23;20204;-82
2021/01/20 18:55:12;;;;;;;5.28;4.57;;;6.50;98.30;;;;;;6135886;23;20210;-81
2021/01/20 18:57:38;;;;;;;4.40;4.00;;;6.50;98.50;;;;;;6133643;23;20200;-82
2021/01/20 19:00:06;;;;;;;8.27;4.93;;;6.50;98.50;;;;;;6134550;23;20191;-81
2021/01/20 19:02:33;;;;;;;6.80;4.15;;;6.50;98.70;;;;;;6134801;23;20211;-81
2021/01/20 19:04:59;;;;;;;5.05;4.55;;;6.50;98.10;;;;;;6134694;23;20179;-81
2021/01/20 19:07:26;;;;;;;5.82;5.25;;;6.50;98.20;;;;;;6133131;23;20207;-81
2021/01/20 19:09:52;;;;;;;5.38;4.88;;;6.50;98.40;;;;;;6134261;23;20183;-81
2021/01/20 19:12:27;;;;;;;5.32;4.82;;;6.50;98.60;;;;;;6134593;23;20200;-83
2021/01/20 19:14:53;;;;;;;5.30;4.90;;;6.50;98.70;;;;;;6140419;23;20182;-82
2021/01/20 19:17:20;;;;;;;5.07;4.35;;;6.40;98.70;;;;;;6142335;23;20250;-82
2021/01/20 19:19:47;;;;;;;5.10;4.68;;;6.30;98.60;;;;;;6142432;23;20223;-82
2021/01/20 19:22:13;;;;;;;4.28;3.88;;;6.30;98.50;;;;;;6141230;23;20620;-82
2021/01/20 19:24:39;;;;;;;4.70;4.20;;;6.30;98.30;;;;;;6140661;23;20209;-82
2021/01/20 19:27:06;;;;;;;6.10;4.15;;;6.20;98.20;;;;;;6140980;23;20247;-83
2021/01/20 19:29:32;;;;;;;4.50;4.10;;;6.20;98.20;;;;;;6141015;23;20203;-82
2021/01/20 19:32:00;;;;;;;4.60;3.83;;;6.20;98.30;;;;;;6141247;23;20663;-82
2021/01/20 19:34:27;;;;;;;4.82;4.40;;;6.20;98.00;;;;;;6141848;23;20560;-82
2021/01/20 19:36:54;;;;;;;5.13;4.63;;;6.20;98.00;;;;;;6142330;23;20243;-82
2021/01/20 19:39:20;;;;;;;3.53;3.22;;;6.10;98.00;;;;;;6139616;23;20180;-81
2021/01/20 19:41:48;;;;;;;3.45;3.15;;;6.20;98.00;;;;;;6141858;23;20265;-82
2021/01/20 19:44:16;;;;;;;4.07;3.67;;;6.20;97.90;;;;;;6141522;23;20192;-82
2021/01/20 19:46:43;;;;;;;5.80;3.20;;;6.10;97.90;;;;;;6140871;23;20197;-82
2021/01/20 19:49:09;;;;;;;3.97;3.38;;;6.20;97.80;;;;;;6141760;23;20213;-82
2021/01/20 19:51:36;;;;;;;4.18;3.75;;;6.20;97.80;;;;;;6140380;23;20284;-82
2021/01/20 19:54:03;;;;;;;6.10;4.20;;;6.30;97.90;;;;;;6140473;23;20186;-80
2021/01/20 19:56:30;;;;;;;3.80;3.50;;;6.30;98.40;;;;;;6140638;23;20182;-82
2021/01/20 19:58:56;;;;;;;4.45;4.15;;;6.20;98.60;;;;;;6139492;23;20271;-82
2021/01/20 20:01:22;;;;;;;4.20;3.63;;;6.20;98.60;;;;;;6139317;23;20182;-81
2021/01/20 20:03:48;;;;;;;4.10;3.80;;;6.20;98.70;;;;;;6140891;23;20635;-81
2021/01/20 20:06:17;;;;;;;4.50;3.72;;;6.20;98.80;;;;;;6142641;23;20213;-81
2021/01/20 20:08:45;;;;;;;4.13;3.28;;;6.20;99.00;;;;;;6142690;23;20199;-82
2021/01/20 20:11:14;;;;;;;4.78;4.00;;;6.10;98.90;;;;;;6141475;23;20253;-81
2021/01/20 20:13:46;;;;;;;8.35;4.45;;;6.10;98.90;;;;;;6141383;23;20175;-82
2021/01/20 20:16:13;;;;;;;4.40;4.07;;;6.10;99.00;;;;;;6142395;23;20167;-82
2021/01/20 20:18:45;;;;;;;3.80;3.47;;;6.00;99.10;;;;;;6141977;23;20199;-81
2021/01/20 20:21:11;;;;;;;4.20;3.80;;;6.00;99.10;;;;;;6142226;23;20223;-84
2021/01/20 20:23:39;;;;;;;3.50;3.30;;;6.00;99.10;;;;;;6140447;23;20179;-82
2021/01/20 20:26:07;;;;;;;4.38;3.90;;;6.00;99.20;;;;;;6141406;23;20873;-81
2021/01/20 20:28:34;;;;;;;3.47;3.17;;;5.90;99.10;;;;;;6141870;23;20268;-84
2021/01/20 20:31:03;;;;;;;4.28;3.78;;;5.90;99.00;;;;;;6140384;23;20206;-81
2021/01/20 20:33:33;;;;;;;4.05;3.75;;;5.90;99.10;;;;;;6141282;23;20237;-82
2021/01/20 20:35:59;;;;;;;8.25;3.97;;;5.90;99.00;;;;;;6142505;23;20168;-84
2021/01/20 20:38:28;;;;;;;3.92;3.28;;;5.90;99.10;;;;;;6141940;23;20303;-82
2021/01/20 20:40:55;;;;;;;3.72;3.35;;;5.90;99.10;;;;;;6141718;23;20211;-82
2021/01/20 20:43:23;;;;;;;4.20;3.75;;;5.90;99.50;;;;;;6141655;23;20188;-81
2021/01/20 20:45:52;;;;;;;5.22;3.30;;;5.90;99.20;;;;;;6139743;23;20191;-82
2021/01/20 20:48:18;;;;;;;4.60;3.28;;;5.90;99.20;;;;;;6139577;23;20207;-82
2021/01/20 20:50:44;;;;;;;4.50;3.35;;;5.90;99.20;;;;;;6139249;23;20248;-82
2021/01/20 20:53:13;;;;;;;5.00;3.90;;;5.80;99.00;;;;;;6140410;23;20187;-82
2021/01/20 20:55:40;;;;;;;3.78;3.40;;;5.70;99.00;;;;;;6142835;23;20187;-82
2021/01/20 20:58:08;;;;;;;3.78;3.17;;;5.70;99.30;;;;;;6143173;23;20218;-82
2021/01/20 21:00:34;;;;;;;3.25;2.95;;;5.70;99.30;;;;;;6143538;23;20180;-82
2021/01/20 21:03:04;;;;;;;5.60;4.13;;;5.60;99.30;;;;;;6142596;23;20246;-82
2021/01/20 21:05:31;;;;;;;4.18;3.78;;;5.60;99.40;;;;;;6142410;23;20658;-82
2021/01/20 21:07:59;;;;;;;3.50;3.20;;;5.60;99.50;;;;;;6141198;23;20199;-82